sensor_id;sensor_type;location;lat;lon;timestamp;temperature;humidity
72772;SHT30;60894;42.544;1.516;2023-02-01T00:00:34;1.27;57.92
72772;SHT30;60894;42.544;1.516;2023-02-01T00:03:01;1.29;57.19
72772;SHT30;60894;42.544;1.516;2023-02-01T00:05:28;1.24;56.98
72772;SHT30;60894;42.544;1.516;2023-02-01T00:07:55;1.32;56.42
72772;SHT30;60894;42.544;1.516;2023-02-01T00:10:22;1.21;56.31
72772;SHT30;60894;42.544;1.516;2023-02-01T00:12:49;1.14;58.29
72772;SHT30;60894;42.544;1.516;2023-02-01T00:15:16;1.18;58.27
72772;SHT30;60894;42.544;1.516;2023-02-01T00:17:44;1.11;58.28
72772;SHT30;60894;42.544;1.516;2023-02-01T00:20:12;1.17;58.07
72772;SHT30;60894;42.544;1.516;2023-02-01T00:22:39;1.22;57.33
72772;SHT30;60894;42.544;1.516;2023-02-01T00:25:06;1.14;58.43
72772;SHT30;60894;42.544;1.516;2023-02-01T00:27:33;1.09;58.29
72772;SHT30;60894;42.544;1.516;2023-02-01T00:30:00;1.09;57.66
72772;SHT30;60894;42.544;1.516;2023-02-01T00:32:27;1.21;57.12
72772;SHT30;60894;42.544;1.516;2023-02-01T00:34:56;1.21;57.35
72772;SHT30;60894;42.544;1.516;2023-02-01T00:37:23;1.17;57.13
72772;SHT30;60894;42.544;1.516;2023-02-01T00:39:50;1.24;57.02
72772;SHT30;60894;42.544;1.516;2023-02-01T00:42:17;1.17;57.74
72772;SHT30;60894;42.544;1.516;2023-02-01T00:44:44;1.19;57.38
72772;SHT30;60894;42.544;1.516;2023-02-01T00:47:11;1.08;59.09
72772;SHT30;60894;42.544;1.516;2023-02-01T00:49:38;1.01;59.69
72772;SHT30;60894;42.544;1.516;2023-02-01T00:52:06;0.99;60.09
72772;SHT30;60894;42.544;1.516;2023-02-01T00:54:33;0.99;60.04
72772;SHT30;60894;42.544;1.516;2023-02-01T00:57:02;1.02;59.44
72772;SHT30;60894;42.544;1.516;2023-02-01T00:59:29;1.01;59.19
72772;SHT30;60894;42.544;1.516;2023-02-01T01:01:56;1.12;58.64
72772;SHT30;60894;42.544;1.516;2023-02-01T01:04:23;1.08;58.99
72772;SHT30;60894;42.544;1.516;2023-02-01T01:06:50;0.94;59.92
72772;SHT30;60894;42.544;1.516;2023-02-01T01:09:18;0.83;60.10
72772;SHT30;60894;42.544;1.516;2023-02-01T01:11:45;0.84;59.24
72772;SHT30;60894;42.544;1.516;2023-02-01T01:14:12;0.94;59.57
72772;SHT30;60894;42.544;1.516;2023-02-01T01:16:39;0.92;60.12
72772;SHT30;60894;42.544;1.516;2023-02-01T01:19:07;0.91;60.50
72772;SHT30;60894;42.544;1.516;2023-02-01T01:21:34;0.94;59.83
72772;SHT30;60894;42.544;1.516;2023-02-01T01:24:01;1.05;59.12
72772;SHT30;60894;42.544;1.516;2023-02-01T01:26:30;1.02;58.83
72772;SHT30;60894;42.544;1.516;2023-02-01T01:28:58;0.98;58.40
72772;SHT30;60894;42.544;1.516;2023-02-01T01:31:25;0.94;59.30
72772;SHT30;60894;42.544;1.516;2023-02-01T01:33:55;0.87;59.71
72772;SHT30;60894;42.544;1.516;2023-02-01T01:36:23;0.85;59.53
72772;SHT30;60894;42.544;1.516;2023-02-01T01:38:50;0.84;59.20
72772;SHT30;60894;42.544;1.516;2023-02-01T01:41:19;0.81;59.50
72772;SHT30;60894;42.544;1.516;2023-02-01T01:43:54;0.88;59.69
72772;SHT30;60894;42.544;1.516;2023-02-01T01:46:22;0.81;60.57
72772;SHT30;60894;42.544;1.516;2023-02-01T01:48:53;0.71;61.59
72772;SHT30;60894;42.544;1.516;2023-02-01T01:51:21;0.71;60.67
72772;SHT30;60894;42.544;1.516;2023-02-01T01:53:55;0.76;60.44
72772;SHT30;60894;42.544;1.516;2023-02-01T01:56:23;0.76;61.21
72772;SHT30;60894;42.544;1.516;2023-02-01T01:58:52;0.70;61.94
72772;SHT30;60894;42.544;1.516;2023-02-01T02:01:20;0.58;61.82
72772;SHT30;60894;42.544;1.516;2023-02-01T02:03:47;0.63;61.80
72772;SHT30;60894;42.544;1.516;2023-02-01T02:06:22;0.63;61.08
72772;SHT30;60894;42.544;1.516;2023-02-01T02:08:53;0.67;60.22
72772;SHT30;60894;42.544;1.516;2023-02-01T02:11:20;0.71;59.81
72772;SHT30;60894;42.544;1.516;2023-02-01T02:13:49;0.80;59.96
72772;SHT30;60894;42.544;1.516;2023-02-01T02:16:41;0.66;61.36
72772;SHT30;60894;42.544;1.516;2023-02-01T02:19:34;0.57;61.73
72772;SHT30;60894;42.544;1.516;2023-02-01T02:28:40;0.66;62.44
72772;SHT30;60894;42.544;1.516;2023-02-01T02:31:29;0.57;62.56
72772;SHT30;60894;42.544;1.516;2023-02-01T02:34:09;0.61;61.16
72772;SHT30;60894;42.544;1.516;2023-02-01T02:36:42;0.78;60.67
72772;SHT30;60894;42.544;1.516;2023-02-01T02:39:18;0.64;60.54
72772;SHT30;60894;42.544;1.516;2023-02-01T02:41:53;0.61;60.85
72772;SHT30;60894;42.544;1.516;2023-02-01T02:44:45;0.61;62.73
72772;SHT30;60894;42.544;1.516;2023-02-01T02:47:34;0.40;63.41
72772;SHT30;60894;42.544;1.516;2023-02-01T02:50:15;0.40;62.73
72772;SHT30;60894;42.544;1.516;2023-02-01T02:53:05;0.40;63.20
72772;SHT30;60894;42.544;1.516;2023-02-01T02:55:52;0.43;62.78
72772;SHT30;60894;42.544;1.516;2023-02-01T02:58:33;0.42;62.81
72772;SHT30;60894;42.544;1.516;2023-02-01T03:01:17;0.40;62.58
72772;SHT30;60894;42.544;1.516;2023-02-01T03:04:02;0.40;62.33
72772;SHT30;60894;42.544;1.516;2023-02-01T03:06:36;0.43;61.89
72772;SHT30;60894;42.544;1.516;2023-02-01T03:09:08;0.52;61.61
72772;SHT30;60894;42.544;1.516;2023-02-01T03:11:37;0.49;62.38
72772;SHT30;60894;42.544;1.516;2023-02-01T03:14:24;0.47;62.45
72772;SHT30;60894;42.544;1.516;2023-02-01T03:16:58;0.43;62.09
72772;SHT30;60894;42.544;1.516;2023-02-01T03:19:31;0.52;62.12
72772;SHT30;60894;42.544;1.516;2023-02-01T03:22:03;0.60;62.03
72772;SHT30;60894;42.544;1.516;2023-02-01T03:24:34;0.60;62.50
72772;SHT30;60894;42.544;1.516;2023-02-01T03:27:08;0.45;63.50
72772;SHT30;60894;42.544;1.516;2023-02-01T03:29:44;0.26;64.16
72772;SHT30;60894;42.544;1.516;2023-02-01T03:32:12;0.29;64.00
72772;SHT30;60894;42.544;1.516;2023-02-01T03:34:39;0.26;63.82
72772;SHT30;60894;42.544;1.516;2023-02-01T03:37:09;0.25;63.67
72772;SHT30;60894;42.544;1.516;2023-02-01T03:39:41;0.30;63.96
72772;SHT30;60894;42.544;1.516;2023-02-01T03:42:15;0.37;62.73
72772;SHT30;60894;42.544;1.516;2023-02-01T03:44:48;0.33;62.98
72772;SHT30;60894;42.544;1.516;2023-02-01T03:47:19;0.26;63.98
72772;SHT30;60894;42.544;1.516;2023-02-01T03:49:49;0.23;64.68
72772;SHT30;60894;42.544;1.516;2023-02-01T03:52:22;0.29;64.46
72772;SHT30;60894;42.544;1.516;2023-02-01T03:54:50;0.33;63.76
72772;SHT30;60894;42.544;1.516;2023-02-01T03:57:22;0.30;63.77
72772;SHT30;60894;42.544;1.516;2023-02-01T03:59:50;0.32;64.13
72772;SHT30;60894;42.544;1.516;2023-02-01T04:02:17;0.37;64.17
72772;SHT30;60894;42.544;1.516;2023-02-01T04:04:44;0.32;63.51
72772;SHT30;60894;42.544;1.516;2023-02-01T04:07:11;0.36;63.36
72772;SHT30;60894;42.544;1.516;2023-02-01T04:09:40;0.36;62.56
72772;SHT30;60894;42.544;1.516;2023-02-01T04:12:07;0.39;63.04
72772;SHT30;60894;42.544;1.516;2023-02-01T04:14:34;0.47;62.51
72772;SHT30;60894;42.544;1.516;2023-02-01T04:17:01;0.45;62.52
72772;SHT30;60894;42.544;1.516;2023-02-01T04:19:28;0.32;64.07
72772;SHT30;60894;42.544;1.516;2023-02-01T04:21:55;0.19;64.70
72772;SHT30;60894;42.544;1.516;2023-02-01T04:24:22;0.09;64.80
72772;SHT30;60894;42.544;1.516;2023-02-01T04:26:51;0.16;64.48
72772;SHT30;60894;42.544;1.516;2023-02-01T04:29:18;0.22;64.40
72772;SHT30;60894;42.544;1.516;2023-02-01T04:31:45;0.12;65.01
72772;SHT30;60894;42.544;1.516;2023-02-01T04:34:11;0.06;65.21
72772;SHT30;60894;42.544;1.516;2023-02-01T04:36:38;0.05;65.29
72772;SHT30;60894;42.544;1.516;2023-02-01T04:39:05;0.06;64.84
72772;SHT30;60894;42.544;1.516;2023-02-01T04:41:32;0.08;65.18
72772;SHT30;60894;42.544;1.516;2023-02-01T04:44:01;0.08;65.32
72772;SHT30;60894;42.544;1.516;2023-02-01T04:46:28;0.09;65.14
72772;SHT30;60894;42.544;1.516;2023-02-01T04:48:55;0.12;64.82
72772;SHT30;60894;42.544;1.516;2023-02-01T04:51:22;0.22;64.37
72772;SHT30;60894;42.544;1.516;2023-02-01T04:53:49;0.16;65.38
72772;SHT30;60894;42.544;1.516;2023-02-01T04:56:16;0.10;65.68
72772;SHT30;60894;42.544;1.516;2023-02-01T04:58:43;0.02;65.99
72772;SHT30;60894;42.544;1.516;2023-02-01T05:01:12;-0.02;65.99
72772;SHT30;60894;42.544;1.516;2023-02-01T05:03:39;-0.05;66.28
72772;SHT30;60894;42.544;1.516;2023-02-01T05:06:06;-0.08;66.64
72772;SHT30;60894;42.544;1.516;2023-02-01T05:08:34;-0.14;66.51
72772;SHT30;60894;42.544;1.516;2023-02-01T05:11:01;-0.15;66.53
72772;SHT30;60894;42.544;1.516;2023-02-01T05:13:29;-0.14;65.57
72772;SHT30;60894;42.544;1.516;2023-02-01T05:16:15;-0.09;65.70
72772;SHT30;60894;42.544;1.516;2023-02-01T05:18:42;-0.12;65.80
72772;SHT30;60894;42.544;1.516;2023-02-01T05:21:09;-0.15;66.27
72772;SHT30;60894;42.544;1.516;2023-02-01T05:23:36;-0.09;66.20
72772;SHT30;60894;42.544;1.516;2023-02-01T05:26:24;-0.09;66.25
72772;SHT30;60894;42.544;1.516;2023-02-01T05:28:51;-0.15;66.68
72772;SHT30;60894;42.544;1.516;2023-02-01T05:31:20;-0.21;67.52
72772;SHT30;60894;42.544;1.516;2023-02-01T05:33:47;-0.15;67.07
72772;SHT30;60894;42.544;1.516;2023-02-01T05:36:14;-0.11;67.00
72772;SHT30;60894;42.544;1.516;2023-02-01T05:38:41;-0.01;66.41
72772;SHT30;60894;42.544;1.516;2023-02-01T05:41:08;-0.02;65.46
72772;SHT30;60894;42.544;1.516;2023-02-01T05:43:35;0.01;64.62
72772;SHT30;60894;42.544;1.516;2023-02-01T05:46:03;0.03;65.67
72772;SHT30;60894;42.544;1.516;2023-02-01T05:48:31;0.01;65.57
72772;SHT30;60894;42.544;1.516;2023-02-01T05:50:58;-0.06;66.68
72772;SHT30;60894;42.544;1.516;2023-02-01T05:53:25;-0.19;66.61
72772;SHT30;60894;42.544;1.516;2023-02-01T05:55:52;-0.16;66.92
72772;SHT30;60894;42.544;1.516;2023-02-01T05:58:19;-0.15;66.65
72772;SHT30;60894;42.544;1.516;2023-02-01T06:00:46;-0.14;67.14
72772;SHT30;60894;42.544;1.516;2023-02-01T06:03:13;-0.08;65.98
72772;SHT30;60894;42.544;1.516;2023-02-01T06:05:43;-0.08;65.62
72772;SHT30;60894;42.544;1.516;2023-02-01T06:08:10;-0.01;65.35
72772;SHT30;60894;42.544;1.516;2023-02-01T06:10:37;-0.02;65.74
72772;SHT30;60894;42.544;1.516;2023-02-01T06:13:05;-0.16;66.85
72772;SHT30;60894;42.544;1.516;2023-02-01T06:15:32;-0.05;66.95
72772;SHT30;60894;42.544;1.516;2023-02-01T06:17:59;-0.19;67.40
72772;SHT30;60894;42.544;1.516;2023-02-01T06:20:26;-0.14;67.10
72772;SHT30;60894;42.544;1.516;2023-02-01T06:22:55;-0.14;67.39
72772;SHT30;60894;42.544;1.516;2023-02-01T06:25:22;-0.21;67.92
72772;SHT30;60894;42.544;1.516;2023-02-01T06:27:49;-0.26;67.87
72772;SHT30;60894;42.544;1.516;2023-02-01T06:30:17;-0.23;67.69
72772;SHT30;60894;42.544;1.516;2023-02-01T06:32:44;-0.29;68.15
72772;SHT30;60894;42.544;1.516;2023-02-01T06:35:11;-0.30;68.50
72772;SHT30;60894;42.544;1.516;2023-02-01T06:37:41;-0.36;67.95
72772;SHT30;60894;42.544;1.516;2023-02-01T06:40:11;-0.33;68.52
72772;SHT30;60894;42.544;1.516;2023-02-01T06:42:38;-0.22;67.78
72772;SHT30;60894;42.544;1.516;2023-02-01T06:45:06;-0.25;67.42
72772;SHT30;60894;42.544;1.516;2023-02-01T06:47:33;-0.28;68.14
72772;SHT30;60894;42.544;1.516;2023-02-01T06:50:00;-0.22;68.32
72772;SHT30;60894;42.544;1.516;2023-02-01T06:52:27;-0.15;67.69
72772;SHT30;60894;42.544;1.516;2023-02-01T06:54:54;-0.14;67.84
72772;SHT30;60894;42.544;1.516;2023-02-01T06:57:22;-0.12;66.99
72772;SHT30;60894;42.544;1.516;2023-02-01T06:59:50;-0.01;67.26
72772;SHT30;60894;42.544;1.516;2023-02-01T07:02:17;0.32;67.23
72772;SHT30;60894;42.544;1.516;2023-02-01T07:04:44;0.32;64.97
72772;SHT30;60894;42.544;1.516;2023-02-01T07:07:11;0.22;65.82
72772;SHT30;60894;42.544;1.516;2023-02-01T07:09:39;0.09;66.64
72772;SHT30;60894;42.544;1.516;2023-02-01T07:12:06;0.06;66.51
72772;SHT30;60894;42.544;1.516;2023-02-01T07:14:35;0.13;68.38
72772;SHT30;60894;42.544;1.516;2023-02-01T07:17:02;0.01;67.17
72772;SHT30;60894;42.544;1.516;2023-02-01T07:19:29;0.06;66.90
72772;SHT30;60894;42.544;1.516;2023-02-01T07:21:56;0.02;67.02
72772;SHT30;60894;42.544;1.516;2023-02-01T07:24:23;-0.04;67.16
72772;SHT30;60894;42.544;1.516;2023-02-01T07:26:50;-0.04;66.76
72772;SHT30;60894;42.544;1.516;2023-02-01T07:29:17;-0.04;67.84
72772;SHT30;60894;42.544;1.516;2023-02-01T07:31:46;-0.02;67.51
72772;SHT30;60894;42.544;1.516;2023-02-01T07:34:13;0.01;66.94
72772;SHT30;60894;42.544;1.516;2023-02-01T07:36:40;-0.02;67.60
72772;SHT30;60894;42.544;1.516;2023-02-01T07:39:07;0.03;66.56
72772;SHT30;60894;42.544;1.516;2023-02-01T07:41:34;0.03;66.90
72772;SHT30;60894;42.544;1.516;2023-02-01T07:44:01;0.02;66.79
72772;SHT30;60894;42.544;1.516;2023-02-01T07:46:28;0.03;66.50
72772;SHT30;60894;42.544;1.516;2023-02-01T07:48:56;-0.06;67.65
72772;SHT30;60894;42.544;1.516;2023-02-01T07:51:23;-0.08;67.55
72772;SHT30;60894;42.544;1.516;2023-02-01T07:53:50;-0.09;67.92
72772;SHT30;60894;42.544;1.516;2023-02-01T07:56:19;-0.11;68.39
72772;SHT30;60894;42.544;1.516;2023-02-01T07:58:48;-0.21;68.05
72772;SHT30;60894;42.544;1.516;2023-02-01T08:01:16;-0.08;67.39
72772;SHT30;60894;42.544;1.516;2023-02-01T08:03:51;-0.01;67.21
72772;SHT30;60894;42.544;1.516;2023-02-01T08:06:21;0.10;67.00
72772;SHT30;60894;42.544;1.516;2023-02-01T08:08:49;0.16;67.07
72772;SHT30;60894;42.544;1.516;2023-02-01T08:11:17;0.05;67.62
72772;SHT30;60894;42.544;1.516;2023-02-01T08:13:45;0.09;67.71
72772;SHT30;60894;42.544;1.516;2023-02-01T08:16:14;0.10;67.89
72772;SHT30;60894;42.544;1.516;2023-02-01T08:18:41;0.25;66.50
72772;SHT30;60894;42.544;1.516;2023-02-01T08:21:10;0.26;66.58
72772;SHT30;60894;42.544;1.516;2023-02-01T08:23:40;0.25;67.50
72772;SHT30;60894;42.544;1.516;2023-02-01T08:26:09;0.25;67.39
72772;SHT30;60894;42.544;1.516;2023-02-01T08:28:36;0.33;67.70
72772;SHT30;60894;42.544;1.516;2023-02-01T08:31:05;0.45;67.05
72772;SHT30;60894;42.544;1.516;2023-02-01T08:33:32;0.63;66.34
72772;SHT30;60894;42.544;1.516;2023-02-01T08:36:01;0.66;66.49
72772;SHT30;60894;42.544;1.516;2023-02-01T08:38:28;0.80;66.08
72772;SHT30;60894;42.544;1.516;2023-02-01T08:40:57;0.89;65.38
72772;SHT30;60894;42.544;1.516;2023-02-01T08:43:24;1.07;64.65
72772;SHT30;60894;42.544;1.516;2023-02-01T08:45:54;1.14;63.78
72772;SHT30;60894;42.544;1.516;2023-02-01T08:48:22;1.31;62.89
72772;SHT30;60894;42.544;1.516;2023-02-01T08:50:49;1.34;62.61
72772;SHT30;60894;42.544;1.516;2023-02-01T08:53:16;1.45;61.89
72772;SHT30;60894;42.544;1.516;2023-02-01T08:55:45;1.64;61.40
72772;SHT30;60894;42.544;1.516;2023-02-01T08:58:14;1.71;60.75
72772;SHT30;60894;42.544;1.516;2023-02-01T09:00:42;1.90;60.85
72772;SHT30;60894;42.544;1.516;2023-02-01T09:03:10;1.93;60.05
72772;SHT30;60894;42.544;1.516;2023-02-01T09:05:38;2.09;59.79
72772;SHT30;60894;42.544;1.516;2023-02-01T09:08:05;2.11;59.32
72772;SHT30;60894;42.544;1.516;2023-02-01T09:10:32;2.31;58.93
72772;SHT30;60894;42.544;1.516;2023-02-01T09:12:59;2.46;57.73
72772;SHT30;60894;42.544;1.516;2023-02-01T09:15:28;2.44;57.64
72772;SHT30;60894;42.544;1.516;2023-02-01T09:17:55;2.56;57.24
72772;SHT30;60894;42.544;1.516;2023-02-01T09:20:21;2.68;58.31
72772;SHT30;60894;42.544;1.516;2023-02-01T09:22:50;2.92;57.58
72772;SHT30;60894;42.544;1.516;2023-02-01T09:25:17;2.95;55.42
72772;SHT30;60894;42.544;1.516;2023-02-01T09:27:44;3.19;54.74
72772;SHT30;60894;42.544;1.516;2023-02-01T09:30:12;3.40;53.93
72772;SHT30;60894;42.544;1.516;2023-02-01T09:32:40;3.47;53.86
72772;SHT30;60894;42.544;1.516;2023-02-01T09:35:08;3.72;52.75
72772;SHT30;60894;42.544;1.516;2023-02-01T09:37:35;4.03;52.05
72772;SHT30;60894;42.544;1.516;2023-02-01T09:40:03;4.19;51.64
72772;SHT30;60894;42.544;1.516;2023-02-01T09:42:44;4.54;51.14
72772;SHT30;60894;42.544;1.516;2023-02-01T09:45:21;4.87;49.29
72772;SHT30;60894;42.544;1.516;2023-02-01T09:47:54;4.81;47.41
72772;SHT30;60894;42.544;1.516;2023-02-01T09:50:28;4.94;46.10
72772;SHT30;60894;42.544;1.516;2023-02-01T09:53:00;5.16;46.24
72772;SHT30;60894;42.544;1.516;2023-02-01T09:55:34;5.65;47.04
72772;SHT30;60894;42.544;1.516;2023-02-01T09:58:06;6.01;45.50
72772;SHT30;60894;42.544;1.516;2023-02-01T10:00:35;6.31;45.39
72772;SHT30;60894;42.544;1.516;2023-02-01T10:03:05;6.62;44.11
72772;SHT30;60894;42.544;1.516;2023-02-01T10:08:31;7.31;41.69
72772;SHT30;60894;42.544;1.516;2023-02-01T10:11:07;7.69;42.20
72772;SHT30;60894;42.544;1.516;2023-02-01T10:13:49;7.99;40.77
72772;SHT30;60894;42.544;1.516;2023-02-01T10:16:27;8.23;38.90
72772;SHT30;60894;42.544;1.516;2023-02-01T10:19:15;8.67;39.03
72772;SHT30;60894;42.544;1.516;2023-02-01T10:21:54;9.04;37.97
72772;SHT30;60894;42.544;1.516;2023-02-01T10:24:32;9.10;36.42
72772;SHT30;60894;42.544;1.516;2023-02-01T10:27:02;9.57;36.61
72772;SHT30;60894;42.544;1.516;2023-02-01T10:29:36;9.84;36.25
72772;SHT30;60894;42.544;1.516;2023-02-01T10:32:11;10.22;35.76
72772;SHT30;60894;42.544;1.516;2023-02-01T10:34:42;10.44;34.34
72772;SHT30;60894;42.544;1.516;2023-02-01T10:37:17;10.82;32.42
72772;SHT30;60894;42.544;1.516;2023-02-01T10:39:47;10.97;27.29
72772;SHT30;60894;42.544;1.516;2023-02-01T10:42:15;11.38;27.26
72772;SHT30;60894;42.544;1.516;2023-02-01T10:44:45;11.70;25.63
72772;SHT30;60894;42.544;1.516;2023-02-01T10:47:14;12.04;25.88
72772;SHT30;60894;42.544;1.516;2023-02-01T10:49:47;11.85;32.61
72772;SHT30;60894;42.544;1.516;2023-02-01T10:52:20;11.40;33.57
72772;SHT30;60894;42.544;1.516;2023-02-01T10:54:53;11.40;34.89
72772;SHT30;60894;42.544;1.516;2023-02-01T10:57:22;11.26;34.44
72772;SHT30;60894;42.544;1.516;2023-02-01T10:59:51;10.91;35.67
72772;SHT30;60894;42.544;1.516;2023-02-01T11:02:26;10.88;35.01
72772;SHT30;60894;42.544;1.516;2023-02-01T11:05:01;10.80;35.33
72772;SHT30;60894;42.544;1.516;2023-02-01T11:07:30;10.66;36.88
72772;SHT30;60894;42.544;1.516;2023-02-01T11:09:57;10.63;37.87
72772;SHT30;60894;42.544;1.516;2023-02-01T11:12:30;10.82;36.98
72772;SHT30;60894;42.544;1.516;2023-02-01T11:15:01;10.83;36.28
72772;SHT30;60894;42.544;1.516;2023-02-01T11:17:35;11.26;37.29
72772;SHT30;60894;42.544;1.516;2023-02-01T11:20:14;11.45;35.50
72772;SHT30;60894;42.544;1.516;2023-02-01T11:22:46;11.26;36.09
72772;SHT30;60894;42.544;1.516;2023-02-01T11:25:15;11.41;35.97
72772;SHT30;60894;42.544;1.516;2023-02-01T11:27:43;12.09;34.50
72772;SHT30;60894;42.544;1.516;2023-02-01T11:30:15;12.05;33.10
72772;SHT30;60894;42.544;1.516;2023-02-01T11:32:44;11.77;34.32
72772;SHT30;60894;42.544;1.516;2023-02-01T11:35:17;12.06;34.06
72772;SHT30;60894;42.544;1.516;2023-02-01T11:37:48;12.21;33.90
72772;SHT30;60894;42.544;1.516;2023-02-01T11:40:28;12.95;33.26
72772;SHT30;60894;42.544;1.516;2023-02-01T11:42:56;13.00;31.19
72772;SHT30;60894;42.544;1.516;2023-02-01T11:45:29;13.31;21.05
72772;SHT30;60894;42.544;1.516;2023-02-01T11:47:57;13.77;18.36
72772;SHT30;60894;42.544;1.516;2023-02-01T11:50:34;13.99;17.00
72772;SHT30;60894;42.544;1.516;2023-02-01T11:53:20;14.61;19.19
72772;SHT30;60894;42.544;1.516;2023-02-01T11:56:00;14.82;16.37
72772;SHT30;60894;42.544;1.516;2023-02-01T11:58:48;14.85;16.42
72772;SHT30;60894;42.544;1.516;2023-02-01T12:01:34;15.03;16.70
72772;SHT30;60894;42.544;1.516;2023-02-01T12:07:15;14.40;17.62
72772;SHT30;60894;42.544;1.516;2023-02-01T12:09:56;14.68;15.96
72772;SHT30;60894;42.544;1.516;2023-02-01T12:12:34;15.03;16.67
72772;SHT30;60894;42.544;1.516;2023-02-01T12:15:19;15.16;15.02
72772;SHT30;60894;42.544;1.516;2023-02-01T12:18:09;15.32;15.45
72772;SHT30;60894;42.544;1.516;2023-02-01T12:20:58;15.06;15.73
72772;SHT30;60894;42.544;1.516;2023-02-01T12:23:42;15.05;16.61
72772;SHT30;60894;42.544;1.516;2023-02-01T12:29:42;15.87;16.27
72772;SHT30;60894;42.544;1.516;2023-02-01T12:32:22;15.97;16.10
72772;SHT30;60894;42.544;1.516;2023-02-01T12:35:06;16.26;15.40
72772;SHT30;60894;42.544;1.516;2023-02-01T12:37:48;16.66;15.68
72772;SHT30;60894;42.544;1.516;2023-02-01T12:40:34;16.86;15.28
72772;SHT30;60894;42.544;1.516;2023-02-01T12:43:09;17.02;15.03
72772;SHT30;60894;42.544;1.516;2023-02-01T12:45:44;17.48;15.46
72772;SHT30;60894;42.544;1.516;2023-02-01T12:48:25;17.52;14.52
72772;SHT30;60894;42.544;1.516;2023-02-01T12:50:55;17.32;13.81
72772;SHT30;60894;42.544;1.516;2023-02-01T12:53:30;17.44;13.83
72772;SHT30;60894;42.544;1.516;2023-02-01T12:56:03;17.72;13.08
72772;SHT30;60894;42.544;1.516;2023-02-01T12:58:38;17.50;11.61
72772;SHT30;60894;42.544;1.516;2023-02-01T13:01:12;17.45;12.36
72772;SHT30;60894;42.544;1.516;2023-02-01T13:03:48;17.61;12.12
72772;SHT30;60894;42.544;1.516;2023-02-01T13:06:20;17.58;12.13
72772;SHT30;60894;42.544;1.516;2023-02-01T13:08:53;17.93;11.82
72772;SHT30;60894;42.544;1.516;2023-02-01T13:11:26;16.84;10.53
72772;SHT30;60894;42.544;1.516;2023-02-01T13:14:00;17.18;11.85
72772;SHT30;60894;42.544;1.516;2023-02-01T13:16:30;17.23;11.61
72772;SHT30;60894;42.544;1.516;2023-02-01T13:19:05;17.62;11.28
72772;SHT30;60894;42.544;1.516;2023-02-01T13:21:36;17.92;10.68
72772;SHT30;60894;42.544;1.516;2023-02-01T13:24:26;17.85;10.37
72772;SHT30;60894;42.544;1.516;2023-02-01T13:26:56;15.78;9.75
72772;SHT30;60894;42.544;1.516;2023-02-01T13:29:24;16.25;10.43
72772;SHT30;60894;42.544;1.516;2023-02-01T13:32:02;16.75;10.75
72772;SHT30;60894;42.544;1.516;2023-02-01T13:34:49;16.62;10.76
72772;SHT30;60894;42.544;1.516;2023-02-01T13:37:31;16.49;11.03
72772;SHT30;60894;42.544;1.516;2023-02-01T13:40:17;16.91;10.94
72772;SHT30;60894;42.544;1.516;2023-02-01T13:42:49;16.49;10.53
72772;SHT30;60894;42.544;1.516;2023-02-01T13:45:20;16.77;11.08
72772;SHT30;60894;42.544;1.516;2023-02-01T13:47:50;16.93;11.30
72772;SHT30;60894;42.544;1.516;2023-02-01T13:50:23;16.62;11.57
72772;SHT30;60894;42.544;1.516;2023-02-01T13:52:53;16.96;11.17
72772;SHT30;60894;42.544;1.516;2023-02-01T13:55:30;16.51;10.44
72772;SHT30;60894;42.544;1.516;2023-02-01T13:58:19;16.42;10.92
72772;SHT30;60894;42.544;1.516;2023-02-01T14:00:47;16.18;10.67
72772;SHT30;60894;42.544;1.516;2023-02-01T14:03:21;16.28;10.56
72772;SHT30;60894;42.544;1.516;2023-02-01T14:09:30;17.41;10.62
72772;SHT30;60894;42.544;1.516;2023-02-01T14:15:23;17.04;10.46
72772;SHT30;60894;42.544;1.516;2023-02-01T14:17:51;17.68;10.42
72772;SHT30;60894;42.544;1.516;2023-02-01T14:20:46;17.81;9.62
72772;SHT30;60894;42.544;1.516;2023-02-01T14:23:27;17.58;9.56
72772;SHT30;60894;42.544;1.516;2023-02-01T14:26:06;17.00;10.17
72772;SHT30;60894;42.544;1.516;2023-02-01T14:28:38;17.41;9.91
72772;SHT30;60894;42.544;1.516;2023-02-01T14:34:11;17.28;10.03
72772;SHT30;60894;42.544;1.516;2023-02-01T14:36:42;17.67;10.07
72772;SHT30;60894;42.544;1.516;2023-02-01T14:39:23;17.34;9.79
72772;SHT30;60894;42.544;1.516;2023-02-01T14:41:54;17.59;9.69
72772;SHT30;60894;42.544;1.516;2023-02-01T14:44:27;17.28;9.00
72772;SHT30;60894;42.544;1.516;2023-02-01T14:50:17;18.13;10.06
72772;SHT30;60894;42.544;1.516;2023-02-01T14:52:49;18.29;9.85
72772;SHT30;60894;42.544;1.516;2023-02-01T14:55:20;18.00;9.04
72772;SHT30;60894;42.544;1.516;2023-02-01T14:57:50;17.59;9.71
72772;SHT30;60894;42.544;1.516;2023-02-01T15:00:22;17.61;9.65
72772;SHT30;60894;42.544;1.516;2023-02-01T15:02:53;17.64;9.36
72772;SHT30;60894;42.544;1.516;2023-02-01T15:05:27;17.23;9.45
72772;SHT30;60894;42.544;1.516;2023-02-01T15:08:00;16.17;10.15
72772;SHT30;60894;42.544;1.516;2023-02-01T15:10:31;15.46;10.27
72772;SHT30;60894;42.544;1.516;2023-02-01T15:12:59;14.99;10.51
72772;SHT30;60894;42.544;1.516;2023-02-01T15:15:26;14.54;11.37
72772;SHT30;60894;42.544;1.516;2023-02-01T15:17:55;14.27;11.12
72772;SHT30;60894;42.544;1.516;2023-02-01T15:20:24;13.99;11.06
72772;SHT30;60894;42.544;1.516;2023-02-01T15:22:56;13.86;11.55
72772;SHT30;60894;42.544;1.516;2023-02-01T15:25:26;13.61;11.94
72772;SHT30;60894;42.544;1.516;2023-02-01T15:27:54;13.29;12.03
72772;SHT30;60894;42.544;1.516;2023-02-01T15:30:23;13.11;12.80
72772;SHT30;60894;42.544;1.516;2023-02-01T15:32:51;12.87;13.11
72772;SHT30;60894;42.544;1.516;2023-02-01T15:35:38;12.72;13.08
72772;SHT30;60894;42.544;1.516;2023-02-01T15:38:39;12.36;13.56
72772;SHT30;60894;42.544;1.516;2023-02-01T15:41:09;12.35;14.05
72772;SHT30;60894;42.544;1.516;2023-02-01T15:43:38;12.32;13.78
72772;SHT30;60894;42.544;1.516;2023-02-01T15:46:12;12.19;13.82
72772;SHT30;60894;42.544;1.516;2023-02-01T15:48:45;12.14;14.05
72772;SHT30;60894;42.544;1.516;2023-02-01T15:51:17;11.94;13.90
72772;SHT30;60894;42.544;1.516;2023-02-01T15:53:47;12.01;15.06
72772;SHT30;60894;42.544;1.516;2023-02-01T15:56:20;11.78;17.79
72772;SHT30;60894;42.544;1.516;2023-02-01T15:58:51;11.61;18.61
72772;SHT30;60894;42.544;1.516;2023-02-01T16:01:19;11.51;16.44
72772;SHT30;60894;42.544;1.516;2023-02-01T16:03:46;11.51;15.61
72772;SHT30;60894;42.544;1.516;2023-02-01T16:06:29;11.58;17.61
72772;SHT30;60894;42.544;1.516;2023-02-01T16:09:01;11.09;19.76
72772;SHT30;60894;42.544;1.516;2023-02-01T16:11:30;10.17;21.39
72772;SHT30;60894;42.544;1.516;2023-02-01T16:13:57;9.79;21.07
72772;SHT30;60894;42.544;1.516;2023-02-01T16:16:25;9.83;22.75
72772;SHT30;60894;42.544;1.516;2023-02-01T16:18:52;9.93;24.02
72772;SHT30;60894;42.544;1.516;2023-02-01T16:21:19;10.17;19.69
72772;SHT30;60894;42.544;1.516;2023-02-01T16:23:52;10.28;16.79
72772;SHT30;60894;42.544;1.516;2023-02-01T16:26:20;10.45;17.39
72772;SHT30;60894;42.544;1.516;2023-02-01T16:28:47;10.37;18.77
72772;SHT30;60894;42.544;1.516;2023-02-01T16:31:15;10.37;20.01
72772;SHT30;60894;42.544;1.516;2023-02-01T16:33:46;9.98;20.50